Time;durP1;ratioP1;P1;durP2;ratioP2;P2;SDS_P1;SDS_P2;PMS_P1;PMS_P2;Temp;Humidity;BMP_temperature;BMP_pressure;BME280_temperature;BME280_humidity;BME280_pressure;Samples;Min_cycle;Max_cycle;Signal;HPM_P1;HPM_P2
2022/03/09 00:00:44;;;;;;;;;;;;;;;-4.53;66.20;99649.16;5019709;28;20067;-82
2022/03/09 00:03:10;;;;;;;16.73;8.77;;;;;;;-4.61;66.36;99634.41;5049203;28;19925;-82
2022/03/09 00:05:36;;;;;;;14.43;8.73;;;;;;;-4.72;65.65;99644.69;5001747;28;20040;-82
2022/03/09 00:08:01;;;;;;;16.60;9.60;;;;;;;-4.74;65.95;99647.16;5012650;28;20033;-82
2022/03/09 00:10:27;;;;;;;12.57;7.97;;;;;;;-4.76;66.63;99637.75;5051708;28;20044;-82
2022/03/09 00:12:53;;;;;;;14.32;8.60;;;;;;;-4.69;66.15;99639.81;5051748;28;20487;-82
2022/03/09 00:15:19;;;;;;;16.17;9.02;;;;;;;-4.72;65.90;99645.59;5035502;28;20492;-82
2022/03/09 00:17:45;;;;;;;16.65;8.60;;;;;;;-4.74;65.87;99647.16;5011419;28;20116;-82
2022/03/09 00:20:10;;;;;;;14.75;8.57;;;;;;;-4.76;66.07;99643.69;5005816;28;20042;-82
2022/03/09 00:22:36;;;;;;;14.68;8.77;;;;;;;-4.71;65.81;99646.47;5045496;28;20129;-83
2022/03/09 00:25:02;;;;;;;14.88;9.02;;;;;;;-4.70;65.73;99644.00;5002057;28;20048;-82
2022/03/09 00:27:29;;;;;;;16.48;8.93;;;;;;;-4.70;65.99;99649.06;4996631;28;20037;-82
2022/03/09 00:29:55;;;;;;;15.07;9.20;;;;;;;-4.85;64.78;99645.69;5027865;28;20045;-81
2022/03/09 00:32:21;;;;;;;13.18;8.35;;;;;;;-4.80;66.18;99638.34;5029507;28;20032;-81
2022/03/09 00:34:46;;;;;;;16.15;8.80;;;;;;;-4.76;65.31;99641.16;5035078;28;20075;-81
2022/03/09 00:37:12;;;;;;;12.98;8.15;;;;;;;-4.64;65.84;99651.06;5032376;28;20056;-81
2022/03/09 00:39:38;;;;;;;15.75;8.77;;;;;;;-4.67;65.17;99644.19;4998923;28;20052;-81
2022/03/09 00:42:03;;;;;;;13.77;7.78;;;;;;;-4.61;65.35;99649.59;5023019;28;20409;-81
2022/03/09 00:44:30;;;;;;;12.98;7.28;;;;;;;-4.60;65.08;99643.72;5034561;28;20557;-81
2022/03/09 00:46:56;;;;;;;15.52;8.35;;;;;;;-4.60;64.32;99645.38;5034961;28;20045;-81
2022/03/09 00:49:22;;;;;;;12.98;7.70;;;;;;;-4.53;64.25;99652.56;5050996;28;20036;-82
2022/03/09 00:51:47;;;;;;;14.68;7.78;;;;;;;-4.55;63.57;99645.66;5042537;28;20045;-81
2022/03/09 00:54:13;;;;;;;13.93;8.27;;;;;;;-4.62;64.15;99652.91;5013018;28;20423;-81
2022/03/09 00:56:39;;;;;;;12.80;7.50;;;;;;;-4.61;64.11;99654.66;5034844;28;20029;-81
2022/03/09 00:59:04;;;;;;;13.70;7.97;;;;;;;-4.65;64.00;99656.91;5018025;28;20045;-81
2022/03/09 01:01:30;;;;;;;13.85;8.20;;;;;;;-4.70;63.83;99658.31;5034066;28;20064;-82
2022/03/09 01:03:56;;;;;;;15.82;9.02;;;;;;;-4.67;64.16;99656.84;5040995;28;20077;-82
2022/03/09 01:06:22;;;;;;;13.85;7.93;;;;;;;-4.67;63.93;99654.31;5007454;28;20064;-81
2022/03/09 01:08:48;;;;;;;14.80;8.35;;;;;;;-4.77;63.59;99656.22;5034342;28;20040;-82
2022/03/09 01:11:13;;;;;;;13.40;8.27;;;;;;;-4.92;63.84;99651.19;5034892;28;20039;-82
2022/03/09 01:13:39;;;;;;;15.65;8.43;;;;;;;-4.91;64.08;99652.91;5015070;28;20157;-82
2022/03/09 01:16:05;;;;;;;11.05;7.20;;;;;;;-4.90;63.72;99654.69;5017904;28;20033;-82
2022/03/09 01:18:31;;;;;;;13.02;7.80;;;;;;;-4.86;64.12;99648.97;5017888;28;20050;-82
2022/03/09 01:20:56;;;;;;;13.05;7.93;;;;;;;-4.79;64.16;99658.69;5050832;28;20044;-82
2022/03/09 01:23:22;;;;;;;14.07;7.68;;;;;;;-4.97;63.75;99663.56;5051022;28;20041;-81
2022/03/09 01:25:48;;;;;;;12.18;7.43;;;;;;;-4.99;64.03;99659.22;5015879;28;20082;-82
2022/03/09 01:28:14;;;;;;;14.52;7.93;;;;;;;-4.94;64.21;99652.75;5040131;28;20072;-81
2022/03/09 01:30:40;;;;;;;14.60;8.35;;;;;;;-4.95;63.79;99666.16;5031015;28;20075;-82
2022/03/09 01:33:05;;;;;;;14.02;7.13;;;;;;;-4.94;63.68;99667.94;4998259;28;20080;-82
2022/03/09 01:35:31;;;;;;;11.85;6.78;;;;;;;-4.99;63.32;99667.69;5014778;28;20033;-82
2022/03/09 01:37:57;;;;;;;13.93;7.70;;;;;;;-5.00;63.67;99672.63;5031165;28;20056;-81
2022/03/09 01:40:22;;;;;;;11.32;7.47;;;;;;;-4.96;63.57;99674.56;5045275;28;20029;-82
2022/03/09 01:42:48;;;;;;;14.40;8.63;;;;;;;-4.95;63.51;99671.22;5048637;28;20035;-82
2022/03/09 01:45:14;;;;;;;15.70;7.70;;;;;;;-5.00;63.23;99675.16;5033937;28;20033;-82
2022/03/09 01:47:41;;;;;;;12.48;6.82;;;;;;;-4.99;63.12;99675.28;5018630;28;20499;-82
2022/03/09 01:50:08;;;;;;;12.07;7.60;;;;;;;-5.02;63.44;99670.03;5054446;28;20048;-83
2022/03/09 01:52:35;;;;;;;12.23;6.88;;;;;;;-5.05;62.88;99677.41;5054140;28;20037;-82
2022/03/09 01:55:00;;;;;;;12.10;6.82;;;;;;;-4.96;63.25;99677.94;5037681;28;20041;-82
2022/03/09 01:57:26;;;;;;;13.65;7.22;;;;;;;-4.92;62.69;99681.53;5042427;28;20128;-82
2022/03/09 01:59:52;;;;;;;13.38;7.47;;;;;;;-4.92;62.60;99682.41;5029216;28;20037;-82
2022/03/09 02:02:18;;;;;;;13.85;7.30;;;;;;;-4.95;62.59;99676.28;4992279;28;20048;-82
2022/03/09 02:04:44;;;;;;;;;;;;;;;-4.93;62.76;99680.66;5012390;28;20378;-80
2022/03/09 02:07:10;;;;;;;15.30;7.45;;;;;;;-4.91;61.73;99679.09;5053594;28;19927;-82
2022/03/09 02:09:43;;;;;;;13.82;7.05;;;;;;;-4.93;61.95;99678.13;5037146;28;20047;-82
2022/03/09 02:12:11;;;;;;;12.52;7.45;;;;;;;-4.98;62.75;99677.00;5032170;28;20037;-81
2022/03/09 02:14:49;;;;;;;15.02;7.65;;;;;;;-4.92;62.47;99691.66;5021421;28;20109;-81
2022/03/09 02:17:19;;;;;;;12.43;6.97;;;;;;;-4.95;61.77;99686.41;5012147;28;20132;-81
2022/03/09 02:19:47;;;;;;;12.63;6.97;;;;;;;-4.93;61.92;99697.50;5011667;28;20044;-81
2022/03/09 02:22:13;;;;;;;14.80;7.32;;;;;;;-4.95;61.65;99697.44;5034961;28;20031;-81
2022/03/09 02:24:38;;;;;;;13.25;7.18;;;;;;;-4.94;61.89;99695.78;5054560;28;20037;-81
2022/03/09 02:27:04;;;;;;;12.90;7.15;;;;;;;-4.96;61.58;99699.84;5036783;28;20064;-81
2022/03/09 02:29:30;;;;;;;12.50;6.97;;;;;;;-4.97;61.20;99705.69;5054270;28;20511;-81
2022/03/09 02:31:55;;;;;;;12.52;7.13;;;;;;;-4.97;61.46;99706.56;5030277;28;20038;-81
2022/03/09 02:34:21;;;;;;;12.48;7.22;;;;;;;-4.95;60.99;99707.56;5031669;28;20052;-81
2022/03/09 02:36:47;;;;;;;13.02;7.68;;;;;;;-4.96;61.66;99699.84;5036578;28;20044;-81
2022/03/09 02:39:13;;;;;;;13.15;6.50;;;;;;;-4.97;61.41;99711.63;5005878;28;20434;-81
2022/03/09 02:41:39;;;;;;;11.07;6.70;;;;;;;-5.04;60.81;99698.53;5053453;28;20029;-81
2022/03/09 02:44:05;;;;;;;12.88;7.45;;;;;;;-5.04;61.45;99711.19;5036684;28;20049;-81
2022/03/09 02:46:30;;;;;;;12.15;6.72;;;;;;;-4.98;61.53;99706.50;5020440;28;20507;-81
2022/03/09 02:48:56;;;;;;;11.43;6.53;;;;;;;-4.99;61.27;99709.81;5039311;28;20042;-81
2022/03/09 02:51:22;;;;;;;15.93;7.45;;;;;;;-4.99;61.81;99717.41;5026798;28;20029;-81
2022/03/09 02:53:48;;;;;;;13.68;7.63;;;;;;;-5.02;61.31;99715.56;5038365;28;20509;-80
2022/03/09 02:56:15;;;;;;;16.17;8.68;;;;;;;-5.06;61.21;99717.81;5031929;28;20037;-81
2022/03/09 02:58:42;;;;;;;13.13;7.22;;;;;;;-5.06;61.75;99708.56;5016514;28;20049;-80
2022/03/09 03:01:10;;;;;;;14.77;7.50;;;;;;;-5.12;61.05;99706.56;5027179;28;20424;-80
2022/03/09 03:03:35;;;;;;;18.08;7.15;;;;;;;-5.02;61.60;99713.03;5052847;28;20095;-81
2022/03/09 03:06:01;;;;;;;11.75;7.43;;;;;;;-5.13;60.89;99721.66;5036134;28;20437;-81
2022/03/09 03:08:28;;;;;;;11.60;7.03;;;;;;;-5.16;60.82;99719.81;5036161;28;20041;-81
2022/03/09 03:10:53;;;;;;;;;;;;;;;-5.26;61.61;99716.66;5036041;28;20102;-81
2022/03/09 03:13:19;;;;;;;12.43;7.40;;;;;;;-5.20;61.75;99720.41;5034216;28;19920;-81
2022/03/09 03:15:45;;;;;;;13.80;7.13;;;;;;;-5.17;61.91;99720.59;5052362;28;20377;-81
2022/03/09 03:18:10;;;;;;;13.85;7.45;;;;;;;-5.17;61.07;99729.84;5036042;28;20048;-80
2022/03/09 03:20:36;;;;;;;11.38;6.88;;;;;;;-5.15;61.58;99734.19;5035933;28;20037;-81
2022/03/09 03:23:02;;;;;;;11.95;7.38;;;;;;;-5.14;61.89;99735.94;5019945;28;20055;-80
2022/03/09 03:25:27;;;;;;;12.93;7.30;;;;;;;-5.12;61.38;99729.31;5035907;28;20178;-81
2022/03/09 03:27:53;;;;;;;12.02;7.13;;;;;;;-5.04;61.50;99747.50;5019428;28;20044;-81
2022/03/09 03:30:19;;;;;;;11.35;7.47;;;;;;;-5.03;61.23;99744.16;5034160;28;20068;-83
2022/03/09 03:32:45;;;;;;;12.60;6.97;;;;;;;-4.99;61.64;99743.56;5014349;28;20040;-82
2022/03/09 03:35:10;;;;;;;13.35;7.22;;;;;;;-4.98;61.28;99739.38;5016385;28;20049;-81
2022/03/09 03:37:36;;;;;;;12.43;6.82;;;;;;;-4.96;61.04;99740.31;5012700;28;20100;-83
2022/03/09 03:40:02;;;;;;;13.18;7.00;;;;;;;-4.99;61.27;99752.81;5028755;28;20123;-83
2022/03/09 03:42:28;;;;;;;12.88;6.65;;;;;;;-5.05;61.17;99749.91;5015310;28;20037;-82
2022/03/09 03:44:55;;;;;;;12.50;7.53;;;;;;;-5.18;61.83;99749.22;5033831;28;20049;-83
2022/03/09 03:47:20;;;;;;;12.68;7.03;;;;;;;-5.14;61.46;99745.19;5051154;28;20041;-83
2022/03/09 03:49:46;;;;;;;12.95;7.10;;;;;;;-5.12;61.79;99752.09;5024089;28;20530;-83
2022/03/09 03:52:12;;;;;;;41.00;23.83;;;;;;;-5.08;61.65;99742.16;5021581;28;20056;-83
2022/03/09 03:54:37;;;;;;;13.23;7.53;;;;;;;-5.16;60.99;99744.22;5012082;28;20421;-82
2022/03/09 03:57:04;;;;;;;12.73;7.68;;;;;;;-5.23;61.47;99744.63;5044252;28;20140;-82
2022/03/09 03:59:29;;;;;;;15.23;7.65;;;;;;;-5.19;61.42;99741.50;5033232;28;20037;-83
2022/03/09 04:01:55;;;;;;;14.75;8.05;;;;;;;-5.33;60.84;99755.00;5014045;28;20053;-83
2022/03/09 04:04:21;;;;;;;15.35;7.55;;;;;;;-5.41;62.11;99750.31;5034832;28;20041;-83
2022/03/09 04:06:46;;;;;;;14.07;8.15;;;;;;;-5.38;61.62;99747.13;5033318;28;20044;-83
2022/03/09 04:09:12;;;;;;;16.67;8.20;;;;;;;-5.44;61.57;99755.22;5050225;28;20148;-83
2022/03/09 04:11:38;;;;;;;17.23;8.63;;;;;;;-5.51;62.73;99754.75;5032493;28;20115;-83
2022/03/09 04:14:03;;;;;;;19.35;8.48;;;;;;;-5.46;62.93;99760.94;5033371;28;20037;-83
2022/03/09 04:16:29;;;;;;;16.80;8.25;;;;;;;-5.44;61.87;99759.41;5033521;28;20072;-84
2022/03/09 04:18:56;;;;;;;17.15;7.55;;;;;;;-5.40;61.99;99749.56;5016361;28;20067;-83
2022/03/09 04:21:22;;;;;;;15.23;7.80;;;;;;;-5.33;62.35;99750.81;5006675;28;20033;-84
2022/03/09 04:23:47;;;;;;;17.38;7.50;;;;;;;-5.32;61.20;99760.13;5028893;28;20036;-84
2022/03/09 04:26:13;;;;;;;15.57;7.82;;;;;;;-5.23;61.23;99765.72;5050331;28;20542;-84
2022/03/09 04:28:39;;;;;;;17.20;8.90;;;;;;;-5.30;61.19;99766.16;5035033;28;20044;-84
2022/03/09 04:31:04;;;;;;;12.18;6.82;;;;;;;-5.29;61.73;99765.38;5015990;28;20109;-84
2022/03/09 04:33:30;;;;;;;12.32;7.20;;;;;;;-5.27;61.42;99771.38;5025193;28;20048;-84
2022/03/09 04:35:56;;;;;;;19.23;9.80;;;;;;;-5.27;61.07;99781.50;5048290;28;20484;-83
2022/03/09 04:38:21;;;;;;;12.63;7.32;;;;;;;-5.34;61.37;99784.47;4994164;28;20056;-84
2022/03/09 04:40:47;;;;;;;15.50;7.95;;;;;;;-5.28;61.98;99781.41;5029778;28;20106;-84
2022/03/09 04:43:13;;;;;;;13.70;8.63;;;;;;;-5.31;61.87;99782.13;5024329;28;20044;-84
2022/03/09 04:45:39;;;;;;;17.17;7.57;;;;;;;-5.30;61.23;99781.34;4999149;28;20037;-84
2022/03/09 04:48:04;;;;;;;14.13;7.60;;;;;;;-5.27;61.79;99789.09;5034280;28;20052;-84
2022/03/09 04:50:30;;;;;;;17.15;8.20;;;;;;;-5.35;61.80;99794.50;5034132;28;20079;-83
2022/03/09 04:52:56;;;;;;;17.58;8.55;;;;;;;-5.41;62.31;99792.44;5033746;28;20037;-83
2022/03/09 04:55:21;;;;;;;18.63;9.73;;;;;;;-5.33;62.61;99796.31;5033523;28;20055;-83
2022/03/09 04:57:47;;;;;;;16.77;8.45;;;;;;;-5.29;62.10;99805.84;5033841;28;20041;-84
2022/03/09 05:00:13;;;;;;;15.32;7.63;;;;;;;-5.43;61.13;99811.72;5050604;28;20044;-83
2022/03/09 05:02:39;;;;;;;20.05;9.18;;;;;;;-5.38;61.84;99810.34;5050291;28;20045;-85
2022/03/09 05:05:05;;;;;;;21.08;8.10;;;;;;;-5.23;61.41;99816.31;5045960;28;20052;-84
2022/03/09 05:07:31;;;;;;;15.38;8.40;;;;;;;-5.21;61.05;99821.47;5008931;28;20045;-84
2022/03/09 05:09:57;;;;;;;16.55;8.25;;;;;;;-5.11;61.27;99817.06;5050066;28;20392;-83
2022/03/09 05:12:23;;;;;;;;;;;;;;;-5.12;61.36;99812.78;5050393;28;20071;-83
2022/03/09 05:14:48;;;;;;;21.00;8.57;;;;;;;-5.21;60.73;99824.00;5048423;28;20062;-83
2022/03/09 05:17:14;;;;;;;15.93;8.00;;;;;;;-5.21;61.28;99822.34;5049010;28;20036;-83
2022/03/09 05:19:40;;;;;;;18.80;8.52;;;;;;;-5.19;60.97;99828.34;5050998;28;20052;-84
2022/03/09 05:22:05;;;;;;;18.55;8.95;;;;;;;-5.25;61.41;99828.00;5033463;28;20025;-84
2022/03/09 05:24:31;;;;;;;22.52;8.20;;;;;;;-5.24;61.32;99829.75;5021198;28;20048;-84
2022/03/09 05:26:56;;;;;;;14.90;8.07;;;;;;;-5.33;61.16;99828.31;5038300;28;20032;-84
2022/03/09 05:29:22;;;;;;;;;;;;;;;-5.25;61.41;99833.06;5039742;28;20124;-83
2022/03/09 05:31:48;;;;;;;25.55;13.02;;;;;;;-5.16;61.23;99837.81;5055049;28;20014;-86
2022/03/09 05:34:14;;;;;;;18.25;9.38;;;;;;;-5.07;61.14;99833.31;5017104;28;20046;-84
2022/03/09 05:36:40;;;;;;;19.17;9.68;;;;;;;-5.09;61.03;99841.56;4991172;28;20037;-83
2022/03/09 05:39:06;;;;;;;15.77;8.68;;;;;;;-5.11;60.65;99842.34;5015768;28;20479;-86
2022/03/09 05:41:32;;;;;;;14.25;8.00;;;;;;;-5.15;60.71;99844.59;5001028;28;20059;-84
2022/03/09 05:43:57;;;;;;;18.40;8.52;;;;;;;-5.17;60.89;99846.19;5036895;28;20365;-83
2022/03/09 05:46:23;;;;;;;18.42;8.23;;;;;;;-5.09;60.65;99851.69;5037918;28;20063;-84
2022/03/09 05:48:49;;;;;;;16.52;8.25;;;;;;;-5.21;60.71;99845.09;5038463;28;20117;-83
2022/03/09 05:51:15;;;;;;;15.10;8.50;;;;;;;-5.14;60.39;99844.69;5040827;28;20041;-83
2022/03/09 05:53:41;;;;;;;14.82;8.35;;;;;;;-5.09;60.13;99849.16;5037488;28;20148;-84
2022/03/09 05:56:06;;;;;;;18.67;8.32;;;;;;;-5.01;59.85;99855.56;5038186;28;20087;-84
2022/03/09 05:58:32;;;;;;;16.75;8.20;;;;;;;-5.10;59.24;99853.34;5015069;28;20053;-82
2022/03/09 06:00:58;;;;;;;22.73;8.30;;;;;;;-5.14;59.11;99848.88;5010927;28;20558;-83
2022/03/09 06:03:24;;;;;;;18.10;8.57;;;;;;;-5.22;58.97;99848.44;5017907;28;20045;-83
2022/03/09 06:05:49;;;;;;;15.38;8.75;;;;;;;-5.21;59.67;99847.63;5049013;28;20040;-85
2022/03/09 06:08:15;;;;;;;17.23;8.45;;;;;;;-5.17;59.26;99844.53;5036933;28;20044;-84
2022/03/09 06:10:42;;;;;;;25.55;9.18;;;;;;;-5.02;59.20;99851.28;5020860;28;20037;-83
2022/03/09 06:13:08;;;;;;;18.25;8.13;;;;;;;-4.86;59.13;99856.47;5052045;28;20041;-83
2022/03/09 06:15:34;;;;;;;15.65;7.88;;;;;;;-4.78;58.61;99862.88;5037308;28;20037;-83
2022/03/09 06:18:01;;;;;;;17.27;8.85;;;;;;;-4.75;58.47;99862.19;5020218;28;20144;-84
2022/03/09 06:20:27;;;;;;;19.05;8.85;;;;;;;-4.66;58.40;99868.66;5005838;28;20040;-85
2022/03/09 06:22:53;;;;;;;17.25;8.25;;;;;;;-4.65;57.96;99867.88;5054693;28;20507;-84
2022/03/09 06:25:19;;;;;;;14.25;7.95;;;;;;;-4.62;57.91;99872.25;5016231;28;20037;-84
2022/03/09 06:27:47;;;;;;;18.88;8.73;;;;;;;-4.68;57.93;99875.28;5016200;28;20037;-84
2022/03/09 06:30:13;;;;;;;14.25;7.70;;;;;;;-4.56;58.31;99874.28;5016602;28;20450;-85
2022/03/09 06:32:40;;;;;;;16.40;8.68;;;;;;;-4.55;57.71;99878.53;5053904;28;20036;-84
2022/03/09 06:35:06;;;;;;;20.02;8.48;;;;;;;-4.66;57.00;99882.97;5052736;28;20047;-84
2022/03/09 06:37:32;;;;;;;15.55;7.70;;;;;;;-4.52;57.31;99872.00;5044953;28;20034;-83
2022/03/09 06:39:57;;;;;;;15.48;8.13;;;;;;;-4.39;56.97;99881.22;5019295;28;20044;-84
2022/03/09 06:42:24;;;;;;;16.60;7.88;;;;;;;-4.40;56.73;99876.91;5020635;28;20094;-83
2022/03/09 06:44:49;;;;;;;16.58;7.63;;;;;;;-4.37;56.17;99877.09;5037027;28;20045;-84
2022/03/09 06:47:15;;;;;;;15.20;8.32;;;;;;;-4.36;55.88;99881.38;5053429;28;20044;-84
2022/03/09 06:49:41;;;;;;;18.60;8.75;;;;;;;-4.33;55.98;99870.56;5053396;28;20033;-86
2022/03/09 06:52:07;;;;;;;10.68;6.60;;;;;;;-4.38;54.74;99880.41;5051390;28;20089;-83
2022/03/09 06:54:33;;;;;;;12.48;6.25;;;;;;;-4.41;54.21;99880.22;5014407;28;20500;-84
2022/03/09 06:56:58;;;;;;;13.52;5.75;;;;;;;-4.28;54.01;99880.16;5000304;28;20415;-84
2022/03/09 06:59:24;;;;;;;17.73;7.25;;;;;;;-4.31;53.37;99877.44;5053644;28;20139;-84
2022/03/09 07:01:50;;;;;;;11.98;6.00;;;;;;;-4.27;53.45;99884.44;5052843;28;20084;-84
2022/03/09 07:04:16;;;;;;;13.07;6.30;;;;;;;-4.23;53.05;99881.28;5037044;28;20045;-84
2022/03/09 07:06:41;;;;;;;11.75;6.13;;;;;;;-4.30;52.85;99889.34;5036063;28;20044;-84
2022/03/09 07:09:07;;;;;;;12.85;6.30;;;;;;;-4.20;53.37;99901.75;5017024;28;20080;-84
2022/03/09 07:11:33;;;;;;;12.35;6.53;;;;;;;-4.33;52.56;99893.34;5033068;28;20042;-84
2022/03/09 07:13:59;;;;;;;11.77;5.93;;;;;;;-4.29;52.82;99898.69;5016829;28;20053;-85
2022/03/09 07:16:25;;;;;;;17.00;6.70;;;;;;;-4.21;52.97;99900.00;4996619;28;20049;-84
2022/03/09 07:18:50;;;;;;;15.52;6.15;;;;;;;-4.10;52.96;99895.56;5030865;28;20099;-84
2022/03/09 07:21:16;;;;;;;10.20;5.97;;;;;;;-3.94;52.60;99899.81;4996358;28;20037;-85
2022/03/09 07:23:42;;;;;;;11.55;5.97;;;;;;;-3.86;52.01;99898.59;4994482;28;20035;-84
2022/03/09 07:26:08;;;;;;;11.55;5.40;;;;;;;-3.59;51.49;99895.06;5005024;28;20582;-84
2022/03/09 07:28:34;;;;;;;13.50;5.50;;;;;;;-3.54;50.70;99890.25;5036712;28;20450;-86
2022/03/09 07:31:00;;;;;;;;;;;;;;;-3.44;50.15;99894.19;5020511;28;20040;-83
2022/03/09 07:33:25;;;;;;;13.13;5.55;;;;;;;-3.59;50.15;99902.69;5052283;28;19917;-83
2022/03/09 07:35:51;;;;;;;11.23;4.40;;;;;;;-3.59;50.47;99904.34;5035674;28;20041;-84
2022/03/09 07:38:17;;;;;;;12.63;5.57;;;;;;;-3.51;49.65;99903.13;5025098;28;20038;-85
2022/03/09 07:40:43;;;;;;;18.65;4.65;;;;;;;-3.65;49.81;99909.97;5032993;28;20099;-83
2022/03/09 07:43:08;;;;;;;12.60;4.60;;;;;;;-3.74;50.06;99896.75;5008703;28;20036;-85
2022/03/09 07:45:34;;;;;;;12.65;5.10;;;;;;;-3.80;49.64;99901.50;5018945;28;20091;-84
2022/03/09 07:48:00;;;;;;;10.00;4.97;;;;;;;-4.01;49.40;99903.69;5016848;28;20102;-85
2022/03/09 07:50:26;;;;;;;10.38;5.07;;;;;;;-4.00;50.00;99904.53;5019709;28;20065;-85
2022/03/09 07:52:51;;;;;;;9.15;5.25;;;;;;;-3.93;50.30;99906.66;4996693;28;20033;-83
2022/03/09 07:55:18;;;;;;;8.75;4.72;;;;;;;-3.97;49.83;99903.06;4995480;28;20046;-83
2022/03/09 07:57:44;;;;;;;13.90;4.50;;;;;;;-3.96;49.94;99903.94;5041761;28;20064;-84
2022/03/09 08:00:10;;;;;;;7.18;4.47;;;;;;;-4.09;50.03;99893.09;5051939;28;20198;-84
2022/03/09 08:02:42;;;;;;;9.57;4.10;;;;;;;-3.93;49.98;99906.66;5036382;28;20081;-84
2022/03/09 08:05:08;;;;;;;10.55;4.45;;;;;;;-4.03;49.07;99892.59;5019303;28;20052;-84
2022/03/09 08:07:34;;;;;;;10.65;4.68;;;;;;;-3.95;50.15;99905.69;5002868;28;20041;-83
2022/03/09 08:10:00;;;;;;;10.70;4.57;;;;;;;-4.01;49.41;99901.13;5051763;28;20041;-83
2022/03/09 08:12:27;;;;;;;10.98;4.22;;;;;;;-4.11;50.12;99904.81;5006980;28;20036;-83
2022/03/09 08:14:53;;;;;;;13.13;5.00;;;;;;;-4.03;49.43;99905.25;5010532;28;20045;-84
2022/03/09 08:17:19;;;;;;;12.13;4.78;;;;;;;-3.99;49.96;99911.34;5012271;28;20033;-83
2022/03/09 08:19:45;;;;;;;;;;;;;;;-3.97;49.49;99914.88;5025218;28;20045;-84
2022/03/09 08:22:10;;;;;;;11.88;4.45;;;;;;;-3.91;49.71;99912.69;5017396;28;19916;-85
2022/03/09 08:24:37;;;;;;;16.80;8.75;;;;;;;-3.82;49.90;99903.06;5012602;28;20054;-85
2022/03/09 08:27:04;;;;;;;12.82;4.82;;;;;;;-3.78;49.05;99906.66;5009774;28;20103;-85
2022/03/09 08:29:30;;;;;;;9.38;4.65;;;;;;;-3.75;49.68;99900.09;4995283;28;20038;-85
2022/03/09 08:31:56;;;;;;;10.48;4.70;;;;;;;-3.72;48.61;99900.25;5023369;28;20037;-85
2022/03/09 08:34:21;;;;;;;11.10;4.95;;;;;;;-3.73;48.28;99902.72;5016352;28;20580;-84
2022/03/09 08:36:47;;;;;;;7.53;4.25;;;;;;;-3.78;47.53;99906.66;5012419;28;20069;-83
2022/03/09 08:39:13;;;;;;;11.18;4.57;;;;;;;-3.63;48.23;99907.50;5015054;28;20060;-84
2022/03/09 08:41:38;;;;;;;9.10;4.10;;;;;;;-3.56;48.10;99899.47;5031704;28;20034;-85
2022/03/09 08:44:04;;;;;;;14.38;4.90;;;;;;;-3.47;47.04;99906.72;4995266;28;20049;-84
2022/03/09 08:46:30;;;;;;;7.78;4.40;;;;;;;-3.48;47.33;99910.00;5016586;28;20041;-84
2022/03/09 08:48:56;;;;;;;11.25;4.70;;;;;;;-3.46;47.03;99901.72;5035607;28;20041;-85
2022/03/09 08:51:22;;;;;;;8.45;4.47;;;;;;;-3.43;46.43;99916.22;5020104;28;20033;-83
2022/03/09 08:53:48;;;;;;;14.02;4.65;;;;;;;-3.52;46.78;99915.72;5034509;28;20049;-83
2022/03/09 08:56:14;;;;;;;12.82;4.45;;;;;;;-3.40;45.91;99912.19;5035203;28;20041;-83
2022/03/09 08:58:40;;;;;;;9.48;4.28;;;;;;;-3.36;45.81;99911.56;5048273;28;20442;-83
2022/03/09 09:01:05;;;;;;;7.50;4.55;;;;;;;-3.14;45.76;99911.06;4998534;28;20386;-84
2022/03/09 09:03:31;;;;;;;10.10;4.68;;;;;;;-3.14;44.99;99912.75;5032832;28;20520;-83
2022/03/09 09:05:58;;;;;;;12.10;5.13;;;;;;;-3.24;45.46;99931.66;5017469;28;20492;-83
2022/03/09 09:08:24;;;;;;;11.80;4.50;;;;;;;-3.22;45.59;99926.66;5001406;28;20045;-85
2022/03/09 09:10:49;;;;;;;8.55;3.97;;;;;;;-3.17;45.29;99921.06;5024230;28;20043;-85
2022/03/09 09:13:16;;;;;;;6.95;3.90;;;;;;;-3.07;45.12;99928.41;5005354;28;20037;-83
2022/03/09 09:15:41;;;;;;;18.20;4.60;;;;;;;-2.97;44.60;99939.91;5017773;28;20051;-84
2022/03/09 09:18:07;;;;;;;11.13;4.63;;;;;;;-2.96;44.41;99941.66;5017446;28;20042;-83
2022/03/09 09:20:33;;;;;;;11.98;4.10;;;;;;;-2.93;44.18;99929.13;5023925;28;20079;-84
2022/03/09 09:22:59;;;;;;;14.70;5.15;;;;;;;-2.82;44.52;99942.41;5035090;28;20547;-87
2022/03/09 09:25:25;;;;;;;10.80;4.78;;;;;;;-2.74;44.30;99933.53;5028095;28;20061;-83
2022/03/09 09:27:52;;;;;;;8.50;4.13;;;;;;;-2.68;43.44;99944.00;5028339;28;20590;-83
2022/03/09 09:30:17;;;;;;;9.00;3.53;;;;;;;-2.57;43.73;99940.38;5029463;28;20083;-84
2022/03/09 09:32:43;;;;;;;12.80;4.00;;;;;;;-2.63;42.94;99937.47;5003374;28;20492;-86
2022/03/09 09:35:10;;;;;;;6.43;3.97;;;;;;;-2.54;42.78;99946.38;5046222;28;20043;-86
2022/03/09 09:37:37;;;;;;;10.57;4.15;;;;;;;-2.36;42.43;99938.06;5010276;28;20120;-85
2022/03/09 09:40:03;;;;;;;8.05;4.38;;;;;;;-2.15;42.13;99945.91;5002696;28;20037;-85
2022/03/09 09:42:31;;;;;;;19.83;4.38;;;;;;;-1.91;41.48;99942.84;5051625;28;20041;-84
2022/03/09 09:45:00;;;;;;;7.85;3.70;;;;;;;-1.77;40.89;99946.94;5019302;28;20033;-84
2022/03/09 09:47:27;;;;;;;14.30;4.00;;;;;;;-1.62;41.18;99952.78;5035009;28;20098;-84
2022/03/09 09:49:53;;;;;;;9.02;3.80;;;;;;;-1.37;40.52;99954.00;5034257;28;20048;-85
2022/03/09 09:52:25;;;;;;;;;;;;;;;-1.15;39.21;99956.72;5035193;28;20500;-87
2022/03/09 09:54:53;;;;;;;10.48;4.90;;;;;;;-0.72;39.09;99947.66;5010761;28;20423;-86
2022/03/09 09:57:19;;;;;;;8.65;4.28;;;;;;;-0.59;38.34;99955.94;5044482;28;20479;-87
2022/03/09 09:59:44;;;;;;;10.77;4.18;;;;;;;-0.11;38.29;99955.47;5017601;28;20083;-85
2022/03/09 10:02:10;;;;;;;13.52;4.47;;;;;;;0.42;36.66;99956.88;5027887;28;20066;-87
2022/03/09 10:04:38;;;;;;;9.13;4.10;;;;;;;1.05;35.49;99949.13;5030976;28;20048;-87
2022/03/09 10:07:04;;;;;;;8.00;3.45;;;;;;;2.21;34.24;99953.34;5051561;28;20155;-84
2022/03/09 10:09:37;;;;;;;10.27;3.75;;;;;;;3.25;31.77;99948.97;5035228;28;20040;-84
2022/03/09 10:12:04;;;;;;;11.27;4.10;;;;;;;3.58;31.81;99951.66;5038395;28;20045;-86
2022/03/09 10:14:52;;;;;;;11.02;3.70;;;;;;;4.36;29.95;99950.34;5021511;28;20102;-85
2022/03/09 10:17:19;;;;;;;6.45;3.45;;;;;;;4.83;29.47;99954.91;5021807;28;20063;-85
2022/03/09 10:19:47;;;;;;;6.13;3.67;;;;;;;5.43;28.04;99952.81;5038687;28;20028;-89
2022/03/09 10:22:23;;;;;;;7.95;4.30;;;;;;;5.58;27.57;99953.13;5055291;28;20461;-87
2022/03/09 10:24:49;;;;;;;9.48;4.18;;;;;;;5.42;27.22;99945.94;5042001;28;20038;-88
2022/03/09 10:27:34;;;;;;;8.25;4.55;;;;;;;5.88;27.91;99962.31;5044735;28;20480;-87
2022/03/09 10:30:01;;;;;;;7.78;3.83;;;;;;;5.96;26.87;99961.66;5025966;28;20049;-85
2022/03/09 10:33:06;;;;;;;8.23;3.50;;;;;;;6.02;25.94;99966.91;5030434;28;20032;-84
2022/03/09 10:35:31;;;;;;;6.45;3.70;;;;;;;6.23;26.75;99960.41;4995948;28;20061;-85
2022/03/09 10:38:04;;;;;;;7.07;3.60;;;;;;;5.97;25.94;99962.53;5016562;28;20037;-86
2022/03/09 10:40:31;;;;;;;8.82;4.07;;;;;;;5.60;26.54;99957.47;5020391;28;20049;-86
2022/03/09 10:43:18;;;;;;;8.30;3.50;;;;;;;5.39;26.93;99967.31;5029648;28;20372;-85
2022/03/09 10:45:59;;;;;;;5.43;3.40;;;;;;;5.87;25.99;99966.59;5033764;28;20065;-86
2022/03/09 10:48:26;;;;;;;7.63;3.53;;;;;;;6.02;26.93;99964.34;5035503;28;20045;-86
2022/03/09 10:50:52;;;;;;;9.25;4.22;;;;;;;6.35;26.21;99966.66;5003594;28;20029;-86
2022/03/09 10:53:18;;;;;;;11.13;3.25;;;;;;;6.69;25.74;99962.09;5028203;28;20033;-86
2022/03/09 10:55:44;;;;;;;7.63;3.78;;;;;;;6.51;25.65;99966.94;5056679;28;20044;-87
2022/03/09 10:58:21;;;;;;;8.48;4.13;;;;;;;6.15;25.44;99962.88;5025910;28;20048;-85
2022/03/09 11:00:51;;;;;;;7.03;3.75;;;;;;;6.17;26.46;99963.75;5026916;28;20053;-86
2022/03/09 11:03:21;;;;;;;6.10;3.40;;;;;;;5.38;26.53;99978.44;5009632;28;20041;-85
2022/03/09 11:06:01;;;;;;;8.07;4.15;;;;;;;4.88;27.38;99972.16;5039305;28;20060;-85
2022/03/09 11:08:28;;;;;;;9.27;3.85;;;;;;;5.42;26.92;99975.09;5021058;28;20041;-86
2022/03/09 11:10:55;;;;;;;9.23;3.65;;;;;;;6.09;26.18;99991.06;5045560;28;20043;-86
2022/03/09 11:13:22;;;;;;;8.60;4.10;;;;;;;6.56;24.99;99980.78;5054833;28;20539;-85
2022/03/09 11:15:47;;;;;;;6.95;3.80;;;;;;;7.06;24.78;99989.34;5054287;28;20052;-86
2022/03/09 11:18:20;;;;;;;8.45;3.63;;;;;;;7.28;25.07;99990.50;5038995;28;20041;-86
2022/03/09 11:20:47;;;;;;;5.70;3.35;;;;;;;8.04;24.53;99984.59;5016574;28;20037;-86
2022/03/09 11:23:13;;;;;;;8.15;3.75;;;;;;;7.64;23.62;99987.56;4987400;28;20108;-86
2022/03/09 11:25:39;;;;;;;;;;;;;;;7.22;24.22;99994.72;5039203;28;20041;-84